Flight Track Log - Related Links

Times and Time Zones

All times are in EDT time to prevent confusion due to time zone crossing. See the KAP5 flight status page for this flight to view local times or setup timezone preferences in your user account.

Time Position Orientation Groundspeed Altitude Reporting Facility
EDT Latitude Longitude Course Direction KTS MPH feet Rate Location/Type
Sat 03:10:14 PM 42.3500 -71.0167 180° South 110 127 400  Level KA90
Sat 03:10:56 PM 42.3333 -71.0167 180° South 107 123 1,000 824 Climbing KA90
Sat 03:11:56 PM 42.3000 -71.0333 200° South 115 132 1,800 789 Climbing KA90
Sat 03:12:50 PM 42.2833 -71.0333 180° South 115 132 2,500 678 Climbing KA90
Sat 03:13:51 PM 42.2500 -71.0167 160° South 124 143 3,100 550 Climbing KA90
Sat 03:14:50 PM 42.2333 -70.9667 114° Southeast 138 159 3,600 450 Climbing KA90
Sat 03:15:51 PM 42.2000 -70.9500 160° South 130 150 4,000 248 Climbing KA90
Sat 03:16:51 PM 42.1667 -70.9167 143° Southeast 141 162 4,100 400 Climbing KA90
Sat 03:17:51 PM 42.1333 -70.9000 160° South 124 143 4,800 700 Climbing KA90
Sat 03:19:00 PM 42.1076 -70.8954 160° South  Level FlightAware Approximate
Sat 03:26:00 PM 41.9600 -70.8216 160° South  Level FlightAware Approximate
Sat 03:27:00 PM 41.9382 -70.8167 180° South  Level FlightAware Approximate
Sat 03:28:00 PM 41.9157 -70.8162 161° South  Level FlightAware Approximate
Sat 03:29:00 PM 41.8944 -70.8065 161° South  Level FlightAware Approximate
Sat 03:30:00 PM 41.8731 -70.7968 161° South  Level FlightAware Approximate
Sat 03:31:00 PM 41.8518 -70.7871 161° South  Level FlightAware Approximate
Sat 03:32:00 PM 41.8305 -70.7775 161° South  Level FlightAware Approximate
Sat 03:33:00 PM 41.8092 -70.7678 161° South  Level FlightAware Approximate
Sat 03:34:00 PM 41.7879 -70.7581 161° South  Level FlightAware Approximate
Sat 03:35:00 PM 41.7666 -70.7484 161° South  Level FlightAware Approximate
Sat 03:36:00 PM 41.7453 -70.7388 161° South  Level FlightAware Approximate
Sat 03:37:00 PM 41.7239 -70.7298 164° South  Level FlightAware Approximate
Sat 03:38:00 PM 41.7022 -70.7216 164° South  Level FlightAware Approximate
Sat 03:39:00 PM 41.6805 -70.7135 164° South  Level FlightAware Approximate
Sat 03:40:00 PM 41.6589 -70.7054 164° South  Level FlightAware Approximate
Sat 03:41:00 PM 41.6372 -70.6973 164° South  Level FlightAware Approximate
Sat 03:42:00 PM 41.6156 -70.6892 164° South  Level FlightAware Approximate
Sat 03:43:00 PM 41.5939 -70.6811 164° South  Level FlightAware Approximate
Sat 03:44:00 PM 41.5723 -70.6729 164° South  Level FlightAware Approximate
Sat 03:45:00 PM 41.5506 -70.6648 164° South  Level FlightAware Approximate
Sat 03:46:00 PM 41.5290 -70.6567 164° South  Level FlightAware Approximate
Sat 03:47:00 PM 41.5073 -70.6486 164° South  Level FlightAware Approximate

Login

Don't have an account? Register now (free) for customized features, flight alerts, and more!